createdAt,value
2023-04-19T00:01:11.109Z,41.96
2023-04-19T00:03:37.759Z,41.93
2023-04-19T00:06:04.591Z,42.24
2023-04-19T00:08:30.919Z,41.77
2023-04-19T00:10:57.301Z,42.26
2023-04-19T00:13:23.631Z,42.36
2023-04-19T00:15:50.187Z,42.07
2023-04-19T00:18:16.698Z,41.84
2023-04-19T00:20:43.155Z,42.27
2023-04-19T00:23:09.545Z,41.75
2023-04-19T00:25:36.059Z,42.26
2023-04-19T00:28:02.468Z,41.53
2023-04-19T00:30:29.129Z,41.72
2023-04-19T00:32:55.897Z,41.86
2023-04-19T00:35:22.357Z,41.99
2023-04-19T00:37:48.944Z,41.92
2023-04-19T00:40:15.386Z,41.92
2023-04-19T00:42:42.227Z,41.81
2023-04-19T00:45:09.156Z,41.41
2023-04-19T00:47:36.094Z,41.69
2023-04-19T00:50:04.775Z,41.38
2023-04-19T00:52:33.176Z,41.35
2023-04-19T00:55:00.178Z,41.69
2023-04-19T00:57:27.083Z,41.29
2023-04-19T00:59:55.045Z,41.22
2023-04-19T01:02:24.671Z,40.94
2023-04-19T01:04:51.804Z,41.13
2023-04-19T01:07:19.420Z,41.13
2023-04-19T01:09:46.630Z,41.21
2023-04-19T01:12:12.967Z,40.98
2023-04-19T01:14:42.271Z,41.24
2023-04-19T01:17:09.247Z,41.14
2023-04-19T01:19:36.860Z,40.96
2023-04-19T01:22:04.338Z,40.65
2023-04-19T01:24:31.445Z,40.73
2023-04-19T01:26:58.858Z,40.68
2023-04-19T01:29:25.741Z,40.75
2023-04-19T01:31:54.098Z,40.73
2023-04-19T01:34:21.058Z,40.70
2023-04-19T01:36:47.417Z,40.57
2023-04-19T01:39:13.838Z,40.50
2023-04-19T01:41:40.377Z,40.50
2023-04-19T01:44:06.737Z,40.59
2023-04-19T01:46:33.302Z,40.56
2023-04-19T01:48:59.710Z,40.14
2023-04-19T01:51:26.126Z,40.55
2023-04-19T01:53:54.715Z,40.21
2023-04-19T01:56:24.721Z,40.64
2023-04-19T01:58:51.215Z,40.58
2023-04-19T02:01:17.639Z,40.17
2023-04-19T02:03:44.685Z,40.32
2023-04-19T02:06:12.756Z,40.21
2023-04-19T02:08:42.971Z,40.20
2023-04-19T02:11:10.397Z,40.07
2023-04-19T02:13:38.031Z,39.84
2023-04-19T02:16:06.210Z,40.11
2023-04-19T02:18:38.557Z,40.12
2023-04-19T02:21:06.221Z,40.03
2023-04-19T02:23:32.992Z,40.04
2023-04-19T02:25:59.404Z,39.96
2023-04-19T02:28:25.973Z,39.58
2023-04-19T02:30:52.328Z,40.03
2023-04-19T02:33:18.845Z,39.74
2023-04-19T02:35:45.576Z,39.85
2023-04-19T02:38:11.928Z,39.79
2023-04-19T02:40:38.277Z,39.67
2023-04-19T02:43:05.035Z,39.06
2023-04-19T02:45:31.571Z,39.53
2023-04-19T02:47:59.389Z,39.32
2023-04-19T02:50:27.088Z,38.93
2023-04-19T02:52:53.514Z,38.72
2023-04-19T02:55:20.186Z,38.46
2023-04-19T02:57:46.795Z,38.83
2023-04-19T03:00:14.135Z,38.93
2023-04-19T03:02:41.708Z,38.34
2023-04-19T03:05:09.023Z,38.33
2023-04-19T03:07:35.827Z,38.37
2023-04-19T03:10:03.134Z,38.55
2023-04-19T03:12:29.506Z,38.39
2023-04-19T03:14:55.976Z,38.36
2023-04-19T03:17:22.616Z,38.07
2023-04-19T03:19:49.322Z,38.05
2023-04-19T03:22:16.418Z,37.74
2023-04-19T03:24:42.815Z,37.97
2023-04-19T03:27:09.259Z,37.94
2023-04-19T03:29:35.840Z,38.04
2023-04-19T03:32:02.448Z,37.92
2023-04-19T03:34:29.092Z,37.74
2023-04-19T03:36:56.103Z,37.95
2023-04-19T03:39:22.750Z,37.78
2023-04-19T03:41:49.139Z,37.30
2023-04-19T03:44:15.691Z,37.50
2023-04-19T03:46:42.514Z,37.89
2023-04-19T03:49:09.158Z,37.60
2023-04-19T03:51:35.504Z,37.75
2023-04-19T03:54:01.982Z,37.70
2023-04-19T03:56:29.559Z,37.44
2023-04-19T03:58:56.157Z,37.71
2023-04-19T04:01:24.397Z,37.79
2023-04-19T04:03:51.258Z,37.55
2023-04-19T04:06:18.097Z,37.39
2023-04-19T04:08:44.729Z,37.68
2023-04-19T04:11:11.587Z,37.57
2023-04-19T04:13:38.234Z,37.93
2023-04-19T04:16:05.140Z,37.66
2023-04-19T04:18:31.956Z,37.97
2023-04-19T04:20:58.507Z,37.71
2023-04-19T04:23:25.660Z,37.71
2023-04-19T04:26:01.073Z,37.72
2023-04-19T04:28:28.183Z,37.77
2023-04-19T04:30:57.319Z,37.67
2023-04-19T04:33:30.178Z,37.52
2023-04-19T04:35:57.812Z,37.95
2023-04-19T04:38:25.204Z,37.73
2023-04-19T04:40:55.903Z,37.56
2023-04-19T04:43:25.672Z,37.61
2023-04-19T04:45:52.394Z,37.73
2023-04-19T04:48:18.813Z,37.58
2023-04-19T04:50:45.358Z,37.36
2023-04-19T04:53:14.774Z,37.58
2023-04-19T04:55:41.303Z,37.72
2023-04-19T04:58:07.728Z,37.38
2023-04-19T05:00:34.411Z,37.42
2023-04-19T05:03:02.746Z,37.40
2023-04-19T05:05:29.819Z,37.68
2023-04-19T05:07:56.413Z,37.18
2023-04-19T05:10:22.875Z,37.03
2023-04-19T05:12:49.343Z,36.96
2023-04-19T05:15:16.998Z,36.67
2023-04-19T05:17:43.639Z,36.84
2023-04-19T05:20:10.617Z,36.62
2023-04-19T05:22:37.446Z,36.30
2023-04-19T05:25:04.617Z,36.08
2023-04-19T05:27:31.217Z,35.78
2023-04-19T05:29:57.558Z,35.29
2023-04-19T05:32:24.192Z,35.33
2023-04-19T05:34:50.770Z,35.31
2023-04-19T05:37:17.407Z,35.37
2023-04-19T05:39:44.570Z,34.92
2023-04-19T05:42:11.296Z,34.94
2023-04-19T05:44:37.712Z,35.06
2023-04-19T05:47:04.166Z,34.92
2023-04-19T05:49:32.962Z,34.55
2023-04-19T05:51:59.336Z,34.66
2023-04-19T05:54:26.454Z,34.50
2023-04-19T05:56:53.171Z,34.50
2023-04-19T05:59:19.546Z,34.36
2023-04-19T06:01:46.163Z,34.67
2023-04-19T06:04:12.968Z,34.67
2023-04-19T06:06:40.376Z,34.35
2023-04-19T06:09:07.357Z,34.09
2023-04-19T06:11:42.998Z,33.93
2023-04-19T06:14:16.752Z,33.65
2023-04-19T06:16:43.374Z,33.74
2023-04-19T06:19:09.753Z,33.74
2023-04-19T06:21:36.114Z,33.58
2023-04-19T06:24:02.635Z,33.63
2023-04-19T06:26:29.103Z,33.74
2023-04-19T06:28:55.754Z,33.24
2023-04-19T06:31:22.192Z,33.23
2023-04-19T06:33:48.553Z,33.39
2023-04-19T06:36:14.994Z,33.26
2023-04-19T06:38:46.991Z,33.34
2023-04-19T06:41:13.386Z,33.15
2023-04-19T06:43:40.856Z,33.20
2023-04-19T06:46:08.402Z,33.35
2023-04-19T06:48:36.171Z,33.03
2023-04-19T06:51:02.822Z,32.84
2023-04-19T06:53:29.465Z,32.92
2023-04-19T06:56:03.587Z,32.70
2023-04-19T06:58:33.277Z,32.88
2023-04-19T07:01:02.004Z,33.00
2023-04-19T07:03:28.556Z,33.07
2023-04-19T07:05:57.252Z,32.97
2023-04-19T07:08:32.156Z,33.54
2023-04-19T07:11:02.048Z,33.10
2023-04-19T07:13:28.480Z,32.43
2023-04-19T07:15:55.007Z,32.39
2023-04-19T07:18:21.864Z,32.25
2023-04-19T07:20:49.385Z,32.19
2023-04-19T07:23:15.981Z,31.98
2023-04-19T07:25:42.302Z,31.92
2023-04-19T07:28:08.729Z,31.90
2023-04-19T07:30:35.970Z,31.92
2023-04-19T07:33:04.528Z,32.24
2023-04-19T07:35:31.139Z,32.88
2023-04-19T07:37:57.692Z,32.33
2023-04-19T07:40:24.065Z,32.33
2023-04-19T07:42:51.457Z,32.22
2023-04-19T07:45:17.854Z,32.44
2023-04-19T07:47:44.682Z,32.02
2023-04-19T07:50:12.344Z,32.37
2023-04-19T07:52:39.016Z,31.99
2023-04-19T07:55:06.121Z,31.91
2023-04-19T07:57:32.725Z,31.58
2023-04-19T07:59:59.304Z,31.69
2023-04-19T08:02:27.722Z,31.32
2023-04-19T08:04:54.768Z,31.62
2023-04-19T08:07:23.131Z,30.86
2023-04-19T08:09:49.843Z,30.79
2023-04-19T08:12:30.339Z,30.27
2023-04-19T08:15:06.722Z,30.82
2023-04-19T08:17:44.147Z,30.97
2023-04-19T08:20:12.272Z,30.69
2023-04-19T08:22:39.748Z,31.04
2023-04-19T08:25:08.041Z,30.91
2023-04-19T08:27:36.604Z,30.64
2023-04-19T08:30:03.604Z,31.52
2023-04-19T08:32:31.992Z,30.47
2023-04-19T08:34:58.860Z,30.07
2023-04-19T08:37:25.861Z,29.81
2023-04-19T08:39:52.581Z,29.80
2023-04-19T08:45:06.359Z,29.36
2023-04-19T08:47:52.000Z,29.51
2023-04-19T08:50:32.440Z,29.27
2023-04-19T08:53:20.309Z,29.28
2023-04-19T08:58:28.909Z,29.47
2023-04-19T09:01:00.176Z,29.88
2023-04-19T09:03:27.003Z,29.85
2023-04-19T09:05:54.533Z,29.33
2023-04-19T09:08:31.581Z,29.24
2023-04-19T09:11:01.355Z,28.94
2023-04-19T09:13:29.463Z,29.09
2023-04-19T09:16:02.150Z,29.17
2023-04-19T09:18:31.430Z,29.28
2023-04-19T09:21:00.954Z,29.18
2023-04-19T09:23:31.028Z,29.01
2023-04-19T09:26:22.245Z,28.69
2023-04-19T09:29:07.283Z,29.32
2023-04-19T09:31:50.950Z,29.50
2023-04-19T09:34:19.451Z,29.38
2023-04-19T09:36:46.915Z,29.48
2023-04-19T09:39:15.080Z,29.15
2023-04-19T09:41:54.843Z,28.09
2023-04-19T09:44:56.110Z,28.96
2023-04-19T09:47:47.073Z,29.11
2023-04-19T09:52:44.985Z,28.88
2023-04-19T09:55:25.012Z,28.97
2023-04-19T09:57:56.201Z,29.03
2023-04-19T10:00:23.395Z,28.15
2023-04-19T10:02:57.701Z,27.28
2023-04-19T10:05:26.418Z,27.73
2023-04-19T10:07:56.511Z,27.46
2023-04-19T10:10:40.432Z,27.84
2023-04-19T10:13:19.062Z,27.19
2023-04-19T10:15:52.498Z,27.77
2023-04-19T10:18:20.463Z,27.79
2023-04-19T10:21:01.143Z,27.26
2023-04-19T10:23:29.338Z,27.63
2023-04-19T10:26:02.373Z,27.08
2023-04-19T10:28:30.132Z,26.93
2023-04-19T10:31:02.234Z,26.47
2023-04-19T10:33:33.293Z,26.42
2023-04-19T10:36:00.710Z,26.61
2023-04-19T10:38:36.507Z,27.06
2023-04-19T10:41:04.226Z,26.41
2023-04-19T10:43:34.033Z,26.49
2023-04-19T10:46:08.662Z,26.70
2023-04-19T10:48:38.840Z,26.08
2023-04-19T10:51:07.433Z,26.75
2023-04-19T10:53:46.547Z,27.14
2023-04-19T10:56:13.743Z,26.68
2023-04-19T10:59:02.673Z,26.87
2023-04-19T11:01:40.703Z,26.34
2023-04-19T11:04:08.830Z,26.64
2023-04-19T11:06:39.481Z,26.65
2023-04-19T11:09:10.339Z,26.51
2023-04-19T11:11:37.215Z,26.35
2023-04-19T11:14:04.928Z,26.98
2023-04-19T11:16:45.040Z,26.60
2023-04-19T11:19:19.992Z,26.59
2023-04-19T11:21:47.804Z,26.58
2023-04-19T11:24:18.646Z,26.56
2023-04-19T11:26:46.312Z,25.78
2023-04-19T11:29:12.763Z,25.96
2023-04-19T11:31:39.257Z,25.23
2023-04-19T11:34:06.082Z,25.60
2023-04-19T11:36:32.513Z,25.45
2023-04-19T11:38:59.118Z,25.92
2023-04-19T11:41:25.467Z,25.91
2023-04-19T11:43:52.165Z,26.36
2023-04-19T11:46:18.843Z,26.35
2023-04-19T11:48:53.482Z,25.83
2023-04-19T11:51:20.543Z,25.81
2023-04-19T11:53:47.262Z,25.85
2023-04-19T11:56:15.585Z,25.63
2023-04-19T11:58:48.559Z,25.78
2023-04-19T12:01:19.725Z,25.67
2023-04-19T12:03:49.444Z,25.68
2023-04-19T12:06:24.399Z,25.21
2023-04-19T12:08:52.405Z,25.42
2023-04-19T12:11:21.660Z,25.46
2023-04-19T12:13:48.880Z,25.48
2023-04-19T12:16:15.362Z,25.05
2023-04-19T12:18:53.373Z,24.95
2023-04-19T12:21:27.577Z,24.76
2023-04-19T12:23:56.272Z,24.62
2023-04-19T12:26:23.210Z,24.56
2023-04-19T12:28:49.610Z,24.43
2023-04-19T12:31:16.484Z,24.71
2023-04-19T12:33:43.044Z,24.19
2023-04-19T12:36:09.591Z,23.65
2023-04-19T12:38:37.680Z,23.49
2023-04-19T12:41:04.269Z,23.24
2023-04-19T12:43:31.912Z,23.49
2023-04-19T12:45:58.995Z,23.07
2023-04-19T12:48:26.046Z,23.01
2023-04-19T12:50:53.290Z,23.35
2023-04-19T12:53:20.453Z,23.50
2023-04-19T12:55:47.609Z,23.35
2023-04-19T12:58:14.917Z,22.99
2023-04-19T13:00:41.535Z,23.14
2023-04-19T13:03:08.055Z,23.26
2023-04-19T13:05:34.486Z,21.80
2023-04-19T13:08:01.201Z,22.09
2023-04-19T13:10:28.043Z,21.47
2023-04-19T13:12:54.533Z,21.76
2023-04-19T13:15:20.908Z,22.06
2023-04-19T13:17:47.555Z,21.77
2023-04-19T13:20:14.159Z,21.65
2023-04-19T13:22:40.586Z,21.56
2023-04-19T13:25:07.290Z,21.56
2023-04-19T13:27:33.668Z,21.98
2023-04-19T13:30:01.079Z,22.09
2023-04-19T13:32:27.986Z,21.88
2023-04-19T13:34:54.385Z,21.86
2023-04-19T13:37:22.344Z,22.02
2023-04-19T13:39:48.736Z,22.21
2023-04-19T13:42:15.766Z,22.45
2023-04-19T13:44:42.208Z,22.05
2023-04-19T13:47:09.750Z,22.14
2023-04-19T13:49:36.133Z,22.66
2023-04-19T13:52:02.520Z,21.84
2023-04-19T13:54:29.135Z,21.89
2023-04-19T13:56:57.796Z,21.82
2023-04-19T13:59:26.501Z,22.26
2023-04-19T14:01:55.792Z,22.16
2023-04-19T14:04:22.670Z,22.17
2023-04-19T14:06:49.593Z,21.83
2023-04-19T14:09:16.579Z,21.87
2023-04-19T14:11:43.657Z,22.27
2023-04-19T14:14:12.306Z,22.08
2023-04-19T14:16:38.719Z,21.84
2023-04-19T14:19:05.195Z,21.85
2023-04-19T14:21:32.166Z,21.92
2023-04-19T14:23:59.381Z,21.86
2023-04-19T14:26:27.521Z,22.14
2023-04-19T14:28:54.369Z,21.77
2023-04-19T14:31:22.652Z,21.90
2023-04-19T14:33:49.027Z,21.63
2023-04-19T14:36:15.890Z,21.54
2023-04-19T14:38:42.309Z,21.67
2023-04-19T14:41:08.640Z,21.73
2023-04-19T14:43:35.030Z,21.72
2023-04-19T14:46:01.563Z,21.72
2023-04-19T14:48:28.027Z,21.79
2023-04-19T14:50:54.634Z,21.73
2023-04-19T14:53:21.026Z,21.63
2023-04-19T14:55:47.687Z,21.78
2023-04-19T14:58:14.370Z,21.78
2023-04-19T15:00:40.956Z,21.14
2023-04-19T15:03:08.815Z,21.34
2023-04-19T15:05:36.616Z,20.87
2023-04-19T15:08:03.367Z,20.39
2023-04-19T15:10:29.846Z,20.79
2023-04-19T15:12:56.778Z,20.56
2023-04-19T15:15:23.255Z,20.33
2023-04-19T15:17:49.637Z,20.49
2023-04-19T15:20:16.135Z,20.56
2023-04-19T15:22:42.512Z,20.70
2023-04-19T15:25:09.514Z,20.37
2023-04-19T15:27:35.905Z,20.60
2023-04-19T15:30:02.493Z,20.89
2023-04-19T15:32:30.924Z,20.41
2023-04-19T15:34:57.524Z,20.63
2023-04-19T15:37:23.943Z,20.83
2023-04-19T15:39:50.343Z,20.98
2023-04-19T15:42:16.885Z,20.64
2023-04-19T15:44:44.286Z,20.71
2023-04-19T15:47:10.809Z,20.89
2023-04-19T15:49:39.873Z,20.66
2023-04-19T15:52:06.999Z,20.60
2023-04-19T15:54:33.368Z,20.77
2023-04-19T15:57:01.917Z,20.97
2023-04-19T15:59:28.494Z,21.69
2023-04-19T16:01:55.001Z,20.87
2023-04-19T16:04:21.942Z,20.51
2023-04-19T16:06:48.635Z,20.42
2023-04-19T16:09:15.598Z,20.24
2023-04-19T16:11:42.398Z,20.06
2023-04-19T16:14:08.755Z,20.15
2023-04-19T16:16:35.400Z,20.51
2023-04-19T16:19:01.857Z,20.45
2023-04-19T16:21:28.839Z,20.45
2023-04-19T16:23:56.298Z,20.40
2023-04-19T16:26:25.334Z,20.43
2023-04-19T16:36:13.455Z,20.22
2023-04-19T16:38:40.068Z,20.28
2023-04-19T16:41:08.001Z,20.52
2023-04-19T16:43:35.016Z,20.73
2023-04-19T16:46:01.665Z,20.65
2023-04-19T16:48:28.326Z,20.64
2023-04-19T16:50:54.782Z,20.73
2023-04-19T16:53:21.434Z,20.59
2023-04-19T16:55:47.913Z,20.59
2023-04-19T16:58:14.605Z,20.79
2023-04-19T17:00:41.067Z,20.16
2023-04-19T17:03:09.359Z,20.55
2023-04-19T17:05:36.108Z,20.59
2023-04-19T17:08:02.650Z,20.82
2023-04-19T17:10:29.072Z,20.85
2023-04-19T17:12:58.185Z,21.08
2023-04-19T17:15:24.551Z,21.03
2023-04-19T17:17:51.040Z,21.00
2023-04-19T17:20:17.511Z,21.01
2023-04-19T17:22:43.888Z,21.11
2023-04-19T17:25:10.321Z,20.94
2023-04-19T17:27:36.905Z,21.16
2023-04-19T17:30:03.875Z,21.07
2023-04-19T17:32:30.300Z,21.23
2023-04-19T17:34:56.756Z,21.10
2023-04-19T17:37:23.340Z,21.40
2023-04-19T17:39:49.837Z,21.67
2023-04-19T17:42:16.644Z,21.63
2023-04-19T17:44:43.031Z,21.77
2023-04-19T17:47:09.427Z,21.67
2023-04-19T17:49:36.507Z,21.75
2023-04-19T17:52:03.229Z,21.58
2023-04-19T17:54:32.195Z,22.14
2023-04-19T17:56:59.976Z,22.03
2023-04-19T17:59:26.641Z,22.04
2023-04-19T18:01:58.165Z,22.23
2023-04-19T18:04:25.038Z,21.92
2023-04-19T18:06:53.038Z,22.17
2023-04-19T18:09:20.315Z,22.46
2023-04-19T18:11:47.847Z,22.01
2023-04-19T18:14:15.539Z,21.95
2023-04-19T18:16:42.295Z,22.70
2023-04-19T18:21:52.104Z,22.55
2023-04-19T18:24:25.707Z,22.83
2023-04-19T18:26:53.970Z,22.90
2023-04-19T18:29:22.948Z,22.56
2023-04-19T18:31:52.424Z,22.67
2023-04-19T18:34:19.781Z,23.05
2023-04-19T18:36:46.295Z,22.89
2023-04-19T18:39:14.657Z,23.29
2023-04-19T18:41:45.385Z,22.86
2023-04-19T18:46:41.063Z,23.21
2023-04-19T18:49:08.398Z,23.43
2023-04-19T18:51:35.242Z,23.23
2023-04-19T18:54:04.999Z,23.17
2023-04-19T18:57:10.957Z,23.17
2023-04-19T18:59:19.886Z,23.78
2023-04-19T19:01:46.827Z,23.24
2023-04-19T19:07:14.370Z,23.71
2023-04-19T19:09:55.641Z,23.62
2023-04-19T19:12:22.860Z,23.87
2023-04-19T19:14:53.003Z,24.21
2023-04-19T19:17:19.689Z,23.94
2023-04-19T19:19:46.164Z,24.12
2023-04-19T19:22:27.908Z,24.12
2023-04-19T19:25:02.275Z,23.93
2023-04-19T19:27:30.847Z,24.33
2023-04-19T19:29:58.609Z,24.28
2023-04-19T19:32:25.329Z,24.40
2023-04-19T19:34:56.404Z,24.13
2023-04-19T19:37:27.828Z,24.22
2023-04-19T19:39:56.468Z,24.48
2023-04-19T19:42:24.119Z,24.56
2023-04-19T19:44:55.233Z,24.88
2023-04-19T19:47:25.043Z,24.58
2023-04-19T19:52:21.874Z,24.84
2023-04-19T19:54:48.488Z,24.75
2023-04-19T19:59:51.587Z,24.83
2023-04-19T20:02:25.194Z,24.93
2023-04-19T20:04:51.996Z,25.19
2023-04-19T20:07:37.274Z,24.94
2023-04-19T20:10:12.934Z,25.11
2023-04-19T20:12:43.913Z,25.32
2023-04-19T20:15:11.882Z,24.99
2023-04-19T20:17:44.896Z,25.26
2023-04-19T20:20:11.971Z,25.49
2023-04-19T20:22:39.615Z,25.11
2023-04-19T20:25:06.760Z,25.26
2023-04-19T20:27:34.899Z,25.24
2023-04-19T20:30:08.116Z,25.44
2023-04-19T20:32:40.418Z,25.12
2023-04-19T20:35:11.732Z,25.32
2023-04-19T20:37:42.774Z,25.38
2023-04-19T20:40:18.032Z,25.42
2023-04-19T20:42:44.938Z,25.29
2023-04-19T20:45:12.128Z,25.67
2023-04-19T20:47:43.008Z,25.46
2023-04-19T20:50:10.090Z,25.47
2023-04-19T20:52:36.565Z,25.73
2023-04-19T20:55:03.221Z,25.61
2023-04-19T20:57:36.405Z,25.66
2023-04-19T21:00:04.309Z,25.47
2023-04-19T21:02:31.237Z,25.57
2023-04-19T21:04:58.235Z,25.37
2023-04-19T21:07:24.923Z,25.48
2023-04-19T21:09:53.131Z,25.58
2023-04-19T21:12:21.879Z,25.71
2023-04-19T21:14:49.984Z,25.81
2023-04-19T21:17:16.410Z,25.65
2023-04-19T21:19:42.794Z,26.11
2023-04-19T21:22:09.496Z,26.18
2023-04-19T21:24:36.673Z,25.95
2023-04-19T21:27:07.640Z,25.86
2023-04-19T21:29:34.073Z,25.90
2023-04-19T21:32:00.776Z,25.60
2023-04-19T21:34:27.646Z,25.73
2023-04-19T21:36:54.435Z,25.80
2023-04-19T21:39:21.949Z,26.06
2023-04-19T21:41:48.662Z,25.84
2023-04-19T21:44:17.443Z,25.76
2023-04-19T21:46:44.235Z,25.79
2023-04-19T21:49:10.617Z,25.63
2023-04-19T21:51:37.257Z,25.82
2023-04-19T21:54:04.299Z,25.72
2023-04-19T21:56:33.582Z,25.69
2023-04-19T21:59:09.593Z,25.69
2023-04-19T22:01:36.070Z,25.50
2023-04-19T22:04:07.073Z,25.55
2023-04-19T22:06:40.926Z,25.70
2023-04-19T22:09:07.664Z,25.32
2023-04-19T22:11:37.180Z,25.24
2023-04-19T22:14:04.097Z,25.41
2023-04-19T22:16:32.496Z,25.34
2023-04-19T22:19:00.356Z,25.10
2023-04-19T22:21:29.847Z,24.71
2023-04-19T22:23:57.918Z,25.24
2023-04-19T22:26:26.031Z,25.35
2023-04-19T22:28:53.709Z,25.43
2023-04-19T22:31:20.077Z,25.37
2023-04-19T22:33:48.072Z,25.19
2023-04-19T22:36:14.530Z,25.29
2023-04-19T22:38:41.089Z,25.21
2023-04-19T22:41:08.270Z,25.13
2023-04-19T22:43:34.692Z,25.55
2023-04-19T22:46:01.505Z,25.25
2023-04-19T22:48:30.082Z,25.44
2023-04-19T22:50:57.237Z,25.57
2023-04-19T22:53:24.259Z,25.29
2023-04-19T22:55:51.735Z,25.32
2023-04-19T22:58:19.683Z,25.58
2023-04-19T23:00:51.184Z,25.67
2023-04-19T23:03:17.572Z,25.46
2023-04-19T23:05:44.957Z,25.45
2023-04-19T23:08:13.035Z,25.37
2023-04-19T23:10:42.296Z,25.66
2023-04-19T23:13:10.857Z,25.56
2023-04-19T23:15:38.912Z,25.49
2023-04-19T23:18:05.732Z,25.46
2023-04-19T23:20:32.198Z,25.42
2023-04-19T23:23:00.514Z,25.65
2023-04-19T23:25:27.237Z,25.80
2023-04-19T23:30:39.482Z,25.61
2023-04-19T23:33:09.056Z,26.06
2023-04-19T23:35:35.427Z,26.05
2023-04-19T23:38:02.210Z,26.27
2023-04-19T23:40:28.565Z,26.19
2023-04-19T23:42:55.183Z,26.32
2023-04-19T23:45:21.755Z,26.78
2023-04-19T23:47:59.309Z,26.78
2023-04-19T23:50:28.196Z,26.79
2023-04-19T23:52:58.216Z,26.90
2023-04-19T23:55:24.944Z,27.08
2023-04-19T23:57:51.434Z,27.30
